sensor_id;sensor_type;location;lat;lon;timestamp;P1;durP1;ratioP1;P2;durP2;ratioP2
60975;SDS011;46849;48.154;17.042;2022-08-14T00:01:11;7.60;;;4.35;;
60975;SDS011;46849;48.154;17.042;2022-08-14T00:03:55;7.10;;;4.38;;
60975;SDS011;46849;48.154;17.042;2022-08-14T00:06:40;5.50;;;4.20;;
60975;SDS011;46849;48.154;17.042;2022-08-14T00:09:25;7.35;;;4.80;;
60975;SDS011;46849;48.154;17.042;2022-08-14T00:12:10;7.63;;;5.03;;
60975;SDS011;46849;48.154;17.042;2022-08-14T00:14:54;5.85;;;4.30;;
60975;SDS011;46849;48.154;17.042;2022-08-14T00:17:39;5.70;;;4.80;;
60975;SDS011;46849;48.154;17.042;2022-08-14T00:20:26;6.75;;;4.70;;
60975;SDS011;46849;48.154;17.042;2022-08-14T00:23:14;8.35;;;5.00;;
60975;SDS011;46849;48.154;17.042;2022-08-14T00:26:00;7.28;;;4.13;;
60975;SDS011;46849;48.154;17.042;2022-08-14T00:28:45;6.50;;;4.43;;
60975;SDS011;46849;48.154;17.042;2022-08-14T00:31:29;7.70;;;5.05;;
60975;SDS011;46849;48.154;17.042;2022-08-14T00:34:14;7.63;;;4.68;;
60975;SDS011;46849;48.154;17.042;2022-08-14T00:36:59;7.72;;;5.57;;
60975;SDS011;46849;48.154;17.042;2022-08-14T00:39:43;9.32;;;5.30;;
60975;SDS011;46849;48.154;17.042;2022-08-14T00:42:28;8.23;;;5.45;;
60975;SDS011;46849;48.154;17.042;2022-08-14T00:45:13;7.68;;;5.15;;
60975;SDS011;46849;48.154;17.042;2022-08-14T00:47:58;7.25;;;5.18;;
60975;SDS011;46849;48.154;17.042;2022-08-14T00:50:43;6.97;;;4.80;;
60975;SDS011;46849;48.154;17.042;2022-08-14T00:53:28;6.93;;;4.57;;
60975;SDS011;46849;48.154;17.042;2022-08-14T00:56:12;6.65;;;4.65;;
60975;SDS011;46849;48.154;17.042;2022-08-14T00:58:58;9.00;;;5.28;;
60975;SDS011;46849;48.154;17.042;2022-08-14T01:01:43;8.50;;;5.50;;
60975;SDS011;46849;48.154;17.042;2022-08-14T01:04:28;7.60;;;4.95;;
60975;SDS011;46849;48.154;17.042;2022-08-14T01:07:16;8.25;;;4.93;;
60975;SDS011;46849;48.154;17.042;2022-08-14T01:10:05;8.55;;;5.20;;
60975;SDS011;46849;48.154;17.042;2022-08-14T01:12:50;6.63;;;5.05;;
60975;SDS011;46849;48.154;17.042;2022-08-14T01:15:35;7.25;;;4.40;;
60975;SDS011;46849;48.154;17.042;2022-08-14T01:18:20;8.15;;;4.72;;
60975;SDS011;46849;48.154;17.042;2022-08-14T01:24:17;6.53;;;4.63;;
60975;SDS011;46849;48.154;17.042;2022-08-14T01:27:01;8.73;;;5.10;;
60975;SDS011;46849;48.154;17.042;2022-08-14T01:29:49;7.25;;;4.97;;
60975;SDS011;46849;48.154;17.042;2022-08-14T01:32:35;5.80;;;4.30;;
60975;SDS011;46849;48.154;17.042;2022-08-14T01:35:21;7.22;;;4.38;;
60975;SDS011;46849;48.154;17.042;2022-08-14T01:38:06;5.63;;;4.38;;
60975;SDS011;46849;48.154;17.042;2022-08-14T01:40:52;6.38;;;4.38;;
60975;SDS011;46849;48.154;17.042;2022-08-14T01:43:51;8.45;;;5.28;;
60975;SDS011;46849;48.154;17.042;2022-08-14T01:46:44;6.10;;;4.65;;
60975;SDS011;46849;48.154;17.042;2022-08-14T01:49:29;6.35;;;4.70;;
60975;SDS011;46849;48.154;17.042;2022-08-14T01:52:15;7.90;;;4.13;;
60975;SDS011;46849;48.154;17.042;2022-08-14T01:54:59;7.20;;;4.47;;
60975;SDS011;46849;48.154;17.042;2022-08-14T01:57:44;6.20;;;4.40;;
60975;SDS011;46849;48.154;17.042;2022-08-14T02:00:29;8.07;;;4.85;;
60975;SDS011;46849;48.154;17.042;2022-08-14T02:03:14;5.88;;;4.43;;
60975;SDS011;46849;48.154;17.042;2022-08-14T02:06:00;5.93;;;4.20;;
60975;SDS011;46849;48.154;17.042;2022-08-14T02:08:46;7.13;;;4.88;;
60975;SDS011;46849;48.154;17.042;2022-08-14T02:11:32;6.10;;;4.63;;
60975;SDS011;46849;48.154;17.042;2022-08-14T02:14:17;8.20;;;4.90;;
60975;SDS011;46849;48.154;17.042;2022-08-14T02:17:02;7.47;;;4.82;;
60975;SDS011;46849;48.154;17.042;2022-08-14T02:19:52;6.53;;;4.60;;
60975;SDS011;46849;48.154;17.042;2022-08-14T02:22:38;7.05;;;4.85;;
60975;SDS011;46849;48.154;17.042;2022-08-14T02:25:23;6.65;;;4.55;;
60975;SDS011;46849;48.154;17.042;2022-08-14T02:28:11;7.72;;;4.32;;
60975;SDS011;46849;48.154;17.042;2022-08-14T02:30:56;6.50;;;4.47;;
60975;SDS011;46849;48.154;17.042;2022-08-14T02:33:44;5.25;;;3.95;;
60975;SDS011;46849;48.154;17.042;2022-08-14T02:36:30;5.63;;;4.32;;
60975;SDS011;46849;48.154;17.042;2022-08-14T02:39:15;4.38;;;3.42;;
60975;SDS011;46849;48.154;17.042;2022-08-14T02:42:00;5.22;;;4.22;;
60975;SDS011;46849;48.154;17.042;2022-08-14T02:44:45;7.05;;;4.57;;
60975;SDS011;46849;48.154;17.042;2022-08-14T02:47:29;6.22;;;3.97;;
60975;SDS011;46849;48.154;17.042;2022-08-14T02:50:15;6.70;;;4.68;;
60975;SDS011;46849;48.154;17.042;2022-08-14T02:53:00;4.95;;;3.83;;
60975;SDS011;46849;48.154;17.042;2022-08-14T02:55:45;5.97;;;4.47;;
60975;SDS011;46849;48.154;17.042;2022-08-14T02:58:31;6.70;;;4.32;;
60975;SDS011;46849;48.154;17.042;2022-08-14T03:01:21;6.72;;;5.22;;
60975;SDS011;46849;48.154;17.042;2022-08-14T03:04:07;6.72;;;4.90;;
60975;SDS011;46849;48.154;17.042;2022-08-14T03:06:53;6.95;;;4.68;;
60975;SDS011;46849;48.154;17.042;2022-08-14T03:09:39;7.57;;;5.07;;
60975;SDS011;46849;48.154;17.042;2022-08-14T03:12:24;6.63;;;4.53;;
60975;SDS011;46849;48.154;17.042;2022-08-14T03:15:10;6.93;;;4.80;;
60975;SDS011;46849;48.154;17.042;2022-08-14T03:17:57;6.40;;;4.70;;
60975;SDS011;46849;48.154;17.042;2022-08-14T03:20:42;7.05;;;4.72;;
60975;SDS011;46849;48.154;17.042;2022-08-14T03:23:27;9.48;;;5.95;;
60975;SDS011;46849;48.154;17.042;2022-08-14T03:26:19;7.72;;;5.90;;
60975;SDS011;46849;48.154;17.042;2022-08-14T03:29:09;7.90;;;6.28;;
60975;SDS011;46849;48.154;17.042;2022-08-14T03:31:56;7.00;;;5.10;;
60975;SDS011;46849;48.154;17.042;2022-08-14T03:34:41;8.05;;;4.15;;
60975;SDS011;46849;48.154;17.042;2022-08-14T03:37:26;7.65;;;5.35;;
60975;SDS011;46849;48.154;17.042;2022-08-14T03:40:12;8.75;;;5.65;;
60975;SDS011;46849;48.154;17.042;2022-08-14T03:42:56;8.50;;;5.20;;
60975;SDS011;46849;48.154;17.042;2022-08-14T03:45:41;9.38;;;6.28;;
60975;SDS011;46849;48.154;17.042;2022-08-14T03:48:27;9.57;;;6.47;;
60975;SDS011;46849;48.154;17.042;2022-08-14T03:51:12;6.93;;;4.85;;
60975;SDS011;46849;48.154;17.042;2022-08-14T03:53:59;8.68;;;6.20;;
60975;SDS011;46849;48.154;17.042;2022-08-14T03:56:45;7.32;;;5.60;;
60975;SDS011;46849;48.154;17.042;2022-08-14T03:59:31;10.07;;;5.57;;
60975;SDS011;46849;48.154;17.042;2022-08-14T04:02:15;8.27;;;4.45;;
60975;SDS011;46849;48.154;17.042;2022-08-14T04:05:00;9.05;;;5.70;;
60975;SDS011;46849;48.154;17.042;2022-08-14T04:07:45;8.82;;;6.00;;
60975;SDS011;46849;48.154;17.042;2022-08-14T04:10:31;9.02;;;6.57;;
60975;SDS011;46849;48.154;17.042;2022-08-14T04:13:15;10.20;;;5.60;;
60975;SDS011;46849;48.154;17.042;2022-08-14T04:16:02;8.20;;;6.10;;
60975;SDS011;46849;48.154;17.042;2022-08-14T04:18:52;9.15;;;5.88;;
60975;SDS011;46849;48.154;17.042;2022-08-14T04:21:40;10.02;;;6.80;;
60975;SDS011;46849;48.154;17.042;2022-08-14T04:24:25;8.75;;;6.28;;
60975;SDS011;46849;48.154;17.042;2022-08-14T04:27:09;8.07;;;5.82;;
60975;SDS011;46849;48.154;17.042;2022-08-14T04:29:55;12.10;;;6.97;;
60975;SDS011;46849;48.154;17.042;2022-08-14T04:32:40;8.80;;;6.57;;
60975;SDS011;46849;48.154;17.042;2022-08-14T04:35:25;7.53;;;5.47;;
60975;SDS011;46849;48.154;17.042;2022-08-14T04:38:10;8.00;;;5.88;;
60975;SDS011;46849;48.154;17.042;2022-08-14T04:41:13;8.48;;;5.38;;
60975;SDS011;46849;48.154;17.042;2022-08-14T04:44:16;8.88;;;5.82;;
60975;SDS011;46849;48.154;17.042;2022-08-14T04:47:01;10.27;;;7.25;;
60975;SDS011;46849;48.154;17.042;2022-08-14T04:50:05;9.10;;;6.75;;
60975;SDS011;46849;48.154;17.042;2022-08-14T04:52:50;8.05;;;5.90;;
60975;SDS011;46849;48.154;17.042;2022-08-14T04:55:34;7.60;;;5.70;;
60975;SDS011;46849;48.154;17.042;2022-08-14T04:58:21;8.15;;;5.78;;
60975;SDS011;46849;48.154;17.042;2022-08-14T05:01:10;9.00;;;5.90;;
60975;SDS011;46849;48.154;17.042;2022-08-14T05:03:55;9.10;;;6.10;;
60975;SDS011;46849;48.154;17.042;2022-08-14T05:06:41;9.25;;;6.65;;
60975;SDS011;46849;48.154;17.042;2022-08-14T05:09:26;6.13;;;4.63;;
60975;SDS011;46849;48.154;17.042;2022-08-14T05:12:11;9.35;;;6.55;;
60975;SDS011;46849;48.154;17.042;2022-08-14T05:14:56;8.82;;;6.38;;
60975;SDS011;46849;48.154;17.042;2022-08-14T05:17:42;10.55;;;5.85;;
60975;SDS011;46849;48.154;17.042;2022-08-14T05:20:28;9.88;;;6.28;;
60975;SDS011;46849;48.154;17.042;2022-08-14T05:23:15;11.82;;;7.50;;
60975;SDS011;46849;48.154;17.042;2022-08-14T05:26:02;10.20;;;7.15;;
60975;SDS011;46849;48.154;17.042;2022-08-14T05:28:49;10.13;;;6.97;;
60975;SDS011;46849;48.154;17.042;2022-08-14T05:31:34;8.85;;;6.50;;
60975;SDS011;46849;48.154;17.042;2022-08-14T05:34:23;10.05;;;7.05;;
60975;SDS011;46849;48.154;17.042;2022-08-14T05:37:13;10.50;;;7.57;;
60975;SDS011;46849;48.154;17.042;2022-08-14T05:39:58;11.45;;;7.78;;
60975;SDS011;46849;48.154;17.042;2022-08-14T05:42:42;12.07;;;7.65;;
60975;SDS011;46849;48.154;17.042;2022-08-14T05:45:27;9.57;;;6.78;;
60975;SDS011;46849;48.154;17.042;2022-08-14T05:48:13;9.57;;;7.15;;
60975;SDS011;46849;48.154;17.042;2022-08-14T05:51:02;11.90;;;7.93;;
60975;SDS011;46849;48.154;17.042;2022-08-14T05:53:47;9.20;;;6.30;;
60975;SDS011;46849;48.154;17.042;2022-08-14T05:56:31;8.43;;;6.35;;
60975;SDS011;46849;48.154;17.042;2022-08-14T05:59:17;9.90;;;6.75;;
60975;SDS011;46849;48.154;17.042;2022-08-14T06:02:01;12.52;;;7.32;;
60975;SDS011;46849;48.154;17.042;2022-08-14T06:04:46;10.73;;;6.85;;
60975;SDS011;46849;48.154;17.042;2022-08-14T06:07:34;10.70;;;7.65;;
60975;SDS011;46849;48.154;17.042;2022-08-14T06:10:19;12.88;;;8.43;;
60975;SDS011;46849;48.154;17.042;2022-08-14T06:13:04;9.98;;;7.97;;
60975;SDS011;46849;48.154;17.042;2022-08-14T06:15:49;11.35;;;8.27;;
60975;SDS011;46849;48.154;17.042;2022-08-14T06:18:34;15.07;;;8.55;;
60975;SDS011;46849;48.154;17.042;2022-08-14T06:21:20;11.43;;;7.53;;
60975;SDS011;46849;48.154;17.042;2022-08-14T06:24:06;14.68;;;9.77;;
60975;SDS011;46849;48.154;17.042;2022-08-14T06:26:51;9.52;;;6.35;;
60975;SDS011;46849;48.154;17.042;2022-08-14T06:29:36;13.13;;;8.52;;
60975;SDS011;46849;48.154;17.042;2022-08-14T06:32:21;11.88;;;7.70;;
60975;SDS011;46849;48.154;17.042;2022-08-14T06:35:07;12.50;;;8.07;;
60975;SDS011;46849;48.154;17.042;2022-08-14T06:37:54;12.68;;;8.23;;
60975;SDS011;46849;48.154;17.042;2022-08-14T06:40:42;11.95;;;7.88;;
60975;SDS011;46849;48.154;17.042;2022-08-14T06:43:26;12.73;;;8.45;;
60975;SDS011;46849;48.154;17.042;2022-08-14T06:46:11;9.90;;;7.28;;
60975;SDS011;46849;48.154;17.042;2022-08-14T06:48:56;10.80;;;7.28;;
60975;SDS011;46849;48.154;17.042;2022-08-14T06:51:40;10.93;;;7.65;;
60975;SDS011;46849;48.154;17.042;2022-08-14T06:54:30;12.15;;;8.00;;
60975;SDS011;46849;48.154;17.042;2022-08-14T06:57:14;12.25;;;8.63;;
60975;SDS011;46849;48.154;17.042;2022-08-14T06:59:59;15.15;;;8.88;;
60975;SDS011;46849;48.154;17.042;2022-08-14T07:02:44;10.95;;;7.90;;
60975;SDS011;46849;48.154;17.042;2022-08-14T07:05:50;10.90;;;6.95;;
60975;SDS011;46849;48.154;17.042;2022-08-14T07:08:34;9.60;;;7.05;;
60975;SDS011;46849;48.154;17.042;2022-08-14T07:11:20;11.82;;;7.93;;
60975;SDS011;46849;48.154;17.042;2022-08-14T07:14:06;11.80;;;7.93;;
60975;SDS011;46849;48.154;17.042;2022-08-14T07:16:50;11.93;;;7.68;;
60975;SDS011;46849;48.154;17.042;2022-08-14T07:19:35;10.90;;;7.55;;
60975;SDS011;46849;48.154;17.042;2022-08-14T07:22:20;12.77;;;7.60;;
60975;SDS011;46849;48.154;17.042;2022-08-14T07:25:05;12.23;;;8.55;;
60975;SDS011;46849;48.154;17.042;2022-08-14T07:27:52;11.98;;;8.45;;
60975;SDS011;46849;48.154;17.042;2022-08-14T07:30:37;10.05;;;7.38;;
60975;SDS011;46849;48.154;17.042;2022-08-14T07:33:23;10.93;;;7.07;;
60975;SDS011;46849;48.154;17.042;2022-08-14T07:36:10;10.20;;;7.22;;
60975;SDS011;46849;48.154;17.042;2022-08-14T07:38:58;10.13;;;6.95;;
60975;SDS011;46849;48.154;17.042;2022-08-14T07:41:43;9.32;;;6.90;;
60975;SDS011;46849;48.154;17.042;2022-08-14T07:44:28;10.15;;;7.53;;
60975;SDS011;46849;48.154;17.042;2022-08-14T07:47:13;11.20;;;7.35;;
60975;SDS011;46849;48.154;17.042;2022-08-14T07:50:01;8.32;;;6.05;;
60975;SDS011;46849;48.154;17.042;2022-08-14T07:52:51;10.07;;;6.82;;
60975;SDS011;46849;48.154;17.042;2022-08-14T07:55:37;8.63;;;6.88;;
60975;SDS011;46849;48.154;17.042;2022-08-14T07:58:30;9.75;;;6.88;;
60975;SDS011;46849;48.154;17.042;2022-08-14T08:01:17;10.23;;;6.22;;
60975;SDS011;46849;48.154;17.042;2022-08-14T08:04:02;8.70;;;6.47;;
60975;SDS011;46849;48.154;17.042;2022-08-14T08:06:47;9.68;;;5.90;;
60975;SDS011;46849;48.154;17.042;2022-08-14T08:09:32;8.13;;;6.30;;
60975;SDS011;46849;48.154;17.042;2022-08-14T08:12:19;9.82;;;6.20;;
60975;SDS011;46849;48.154;17.042;2022-08-14T08:15:05;8.38;;;6.45;;
60975;SDS011;46849;48.154;17.042;2022-08-14T08:17:49;9.90;;;6.07;;
60975;SDS011;46849;48.154;17.042;2022-08-14T08:20:36;8.63;;;5.97;;
60975;SDS011;46849;48.154;17.042;2022-08-14T08:23:28;7.45;;;5.78;;
60975;SDS011;46849;48.154;17.042;2022-08-14T08:26:18;8.18;;;5.60;;
60975;SDS011;46849;48.154;17.042;2022-08-14T08:29:03;8.30;;;5.75;;
60975;SDS011;46849;48.154;17.042;2022-08-14T08:31:48;8.18;;;5.82;;
60975;SDS011;46849;48.154;17.042;2022-08-14T08:34:43;6.75;;;5.43;;
60975;SDS011;46849;48.154;17.042;2022-08-14T08:37:30;8.00;;;6.00;;
60975;SDS011;46849;48.154;17.042;2022-08-14T08:40:22;7.05;;;4.65;;
60975;SDS011;46849;48.154;17.042;2022-08-14T08:46:13;9.38;;;5.00;;
60975;SDS011;46849;48.154;17.042;2022-08-14T08:49:04;8.15;;;4.68;;
60975;SDS011;46849;48.154;17.042;2022-08-14T08:51:50;7.53;;;5.40;;
60975;SDS011;46849;48.154;17.042;2022-08-14T08:54:52;10.07;;;6.88;;
60975;SDS011;46849;48.154;17.042;2022-08-14T08:57:37;8.07;;;4.87;;
60975;SDS011;46849;48.154;17.042;2022-08-14T09:00:22;6.68;;;4.35;;
60975;SDS011;46849;48.154;17.042;2022-08-14T09:03:09;6.43;;;4.55;;
60975;SDS011;46849;48.154;17.042;2022-08-14T09:05:57;7.05;;;4.97;;
60975;SDS011;46849;48.154;17.042;2022-08-14T09:08:47;6.45;;;5.03;;
60975;SDS011;46849;48.154;17.042;2022-08-14T09:11:31;7.10;;;5.00;;
60975;SDS011;46849;48.154;17.042;2022-08-14T09:14:16;7.15;;;4.82;;
60975;SDS011;46849;48.154;17.042;2022-08-14T09:17:02;7.07;;;4.70;;
60975;SDS011;46849;48.154;17.042;2022-08-14T09:19:49;8.00;;;4.88;;
60975;SDS011;46849;48.154;17.042;2022-08-14T09:22:34;6.45;;;4.80;;
60975;SDS011;46849;48.154;17.042;2022-08-14T09:25:19;8.05;;;5.00;;
60975;SDS011;46849;48.154;17.042;2022-08-14T09:28:04;7.22;;;5.15;;
60975;SDS011;46849;48.154;17.042;2022-08-14T09:30:53;5.78;;;4.10;;
60975;SDS011;46849;48.154;17.042;2022-08-14T09:49:11;5.82;;;4.15;;
60975;SDS011;46849;48.154;17.042;2022-08-14T09:52:15;6.03;;;4.57;;
60975;SDS011;46849;48.154;17.042;2022-08-14T09:55:00;5.25;;;4.03;;
60975;SDS011;46849;48.154;17.042;2022-08-14T09:57:46;6.32;;;4.47;;
60975;SDS011;46849;48.154;17.042;2022-08-14T10:00:40;7.90;;;4.07;;
60975;SDS011;46849;48.154;17.042;2022-08-14T10:03:53;6.07;;;4.50;;
60975;SDS011;46849;48.154;17.042;2022-08-14T10:06:41;6.68;;;4.13;;
60975;SDS011;46849;48.154;17.042;2022-08-14T10:09:28;5.97;;;4.20;;
60975;SDS011;46849;48.154;17.042;2022-08-14T10:12:13;5.68;;;4.13;;
60975;SDS011;46849;48.154;17.042;2022-08-14T10:14:57;5.22;;;4.10;;
60975;SDS011;46849;48.154;17.042;2022-08-14T10:17:42;5.78;;;4.07;;
60975;SDS011;46849;48.154;17.042;2022-08-14T10:20:31;5.65;;;3.65;;
60975;SDS011;46849;48.154;17.042;2022-08-14T10:26:05;9.25;;;4.63;;
60975;SDS011;46849;48.154;17.042;2022-08-14T10:28:51;5.57;;;3.65;;
60975;SDS011;46849;48.154;17.042;2022-08-14T10:31:37;6.05;;;4.15;;
60975;SDS011;46849;48.154;17.042;2022-08-14T10:34:29;5.95;;;4.38;;
60975;SDS011;46849;48.154;17.042;2022-08-14T10:37:16;4.60;;;3.53;;
60975;SDS011;46849;48.154;17.042;2022-08-14T10:40:02;8.05;;;4.10;;
60975;SDS011;46849;48.154;17.042;2022-08-14T10:42:47;6.68;;;4.38;;
60975;SDS011;46849;48.154;17.042;2022-08-14T10:45:32;5.57;;;3.50;;
60975;SDS011;46849;48.154;17.042;2022-08-14T10:48:18;5.75;;;4.63;;
60975;SDS011;46849;48.154;17.042;2022-08-14T10:51:02;6.93;;;4.10;;
60975;SDS011;46849;48.154;17.042;2022-08-14T10:53:52;5.32;;;3.50;;
60975;SDS011;46849;48.154;17.042;2022-08-14T10:56:37;4.57;;;3.60;;
60975;SDS011;46849;48.154;17.042;2022-08-14T10:59:22;5.63;;;3.60;;
60975;SDS011;46849;48.154;17.042;2022-08-14T11:02:17;6.47;;;3.97;;
60975;SDS011;46849;48.154;17.042;2022-08-14T11:05:15;6.78;;;4.03;;
60975;SDS011;46849;48.154;17.042;2022-08-14T11:08:01;4.45;;;3.10;;
60975;SDS011;46849;48.154;17.042;2022-08-14T11:10:47;5.50;;;3.95;;
60975;SDS011;46849;48.154;17.042;2022-08-14T11:13:39;5.28;;;3.78;;
60975;SDS011;46849;48.154;17.042;2022-08-14T11:16:29;5.07;;;3.70;;
60975;SDS011;46849;48.154;17.042;2022-08-14T11:19:15;4.63;;;3.40;;
60975;SDS011;46849;48.154;17.042;2022-08-14T11:22:02;4.65;;;3.50;;
60975;SDS011;46849;48.154;17.042;2022-08-14T11:24:49;6.18;;;3.67;;
60975;SDS011;46849;48.154;17.042;2022-08-14T11:27:35;4.72;;;3.65;;
60975;SDS011;46849;48.154;17.042;2022-08-14T11:30:23;5.30;;;3.20;;
60975;SDS011;46849;48.154;17.042;2022-08-14T11:33:11;7.22;;;3.45;;
60975;SDS011;46849;48.154;17.042;2022-08-14T11:35:56;5.15;;;3.50;;
60975;SDS011;46849;48.154;17.042;2022-08-14T11:38:45;4.85;;;3.58;;
60975;SDS011;46849;48.154;17.042;2022-08-14T11:41:30;4.65;;;3.35;;
60975;SDS011;46849;48.154;17.042;2022-08-14T11:44:17;5.20;;;3.28;;
60975;SDS011;46849;48.154;17.042;2022-08-14T11:47:03;5.05;;;3.45;;
60975;SDS011;46849;48.154;17.042;2022-08-14T11:49:48;5.00;;;3.38;;
60975;SDS011;46849;48.154;17.042;2022-08-14T11:52:34;4.32;;;3.22;;
60975;SDS011;46849;48.154;17.042;2022-08-14T11:55:20;4.00;;;3.10;;
60975;SDS011;46849;48.154;17.042;2022-08-14T11:58:07;5.18;;;3.50;;
60975;SDS011;46849;48.154;17.042;2022-08-14T12:00:55;4.68;;;3.42;;
60975;SDS011;46849;48.154;17.042;2022-08-14T12:03:45;4.20;;;3.15;;
60975;SDS011;46849;48.154;17.042;2022-08-14T12:06:31;4.65;;;3.33;;
60975;SDS011;46849;48.154;17.042;2022-08-14T12:09:29;4.03;;;3.20;;
60975;SDS011;46849;48.154;17.042;2022-08-14T12:12:16;4.65;;;3.17;;
60975;SDS011;46849;48.154;17.042;2022-08-14T12:15:02;7.03;;;3.53;;
60975;SDS011;46849;48.154;17.042;2022-08-14T12:17:48;4.93;;;3.40;;
60975;SDS011;46849;48.154;17.042;2022-08-14T12:20:35;6.60;;;3.33;;
60975;SDS011;46849;48.154;17.042;2022-08-14T12:23:25;6.22;;;3.55;;
60975;SDS011;46849;48.154;17.042;2022-08-14T12:26:14;4.40;;;3.00;;
60975;SDS011;46849;48.154;17.042;2022-08-14T12:29:08;4.40;;;2.95;;
60975;SDS011;46849;48.154;17.042;2022-08-14T12:31:58;3.85;;;3.00;;
60975;SDS011;46849;48.154;17.042;2022-08-14T12:34:51;4.05;;;3.03;;
60975;SDS011;46849;48.154;17.042;2022-08-14T12:37:45;3.95;;;3.00;;
60975;SDS011;46849;48.154;17.042;2022-08-14T12:40:47;4.82;;;3.25;;
60975;SDS011;46849;48.154;17.042;2022-08-14T12:43:43;6.60;;;3.30;;
60975;SDS011;46849;48.154;17.042;2022-08-14T12:46:35;4.22;;;3.05;;
60975;SDS011;46849;48.154;17.042;2022-08-14T12:49:24;4.72;;;2.78;;
60975;SDS011;46849;48.154;17.042;2022-08-14T12:52:09;3.75;;;3.08;;
60975;SDS011;46849;48.154;17.042;2022-08-14T12:55:05;3.42;;;2.70;;
60975;SDS011;46849;48.154;17.042;2022-08-14T12:57:53;3.78;;;2.78;;
60975;SDS011;46849;48.154;17.042;2022-08-14T13:00:50;4.97;;;2.92;;
60975;SDS011;46849;48.154;17.042;2022-08-14T13:03:35;3.75;;;2.70;;
60975;SDS011;46849;48.154;17.042;2022-08-14T13:06:21;4.53;;;3.40;;
60975;SDS011;46849;48.154;17.042;2022-08-14T13:09:20;4.63;;;2.55;;
60975;SDS011;46849;48.154;17.042;2022-08-14T13:12:11;5.88;;;3.17;;
60975;SDS011;46849;48.154;17.042;2022-08-14T13:15:05;3.35;;;2.47;;
60975;SDS011;46849;48.154;17.042;2022-08-14T13:17:54;3.92;;;2.80;;
60975;SDS011;46849;48.154;17.042;2022-08-14T13:20:41;4.45;;;2.67;;
60975;SDS011;46849;48.154;17.042;2022-08-14T13:23:34;4.57;;;3.10;;
60975;SDS011;46849;48.154;17.042;2022-08-14T13:26:25;6.95;;;3.10;;
60975;SDS011;46849;48.154;17.042;2022-08-14T13:29:11;4.20;;;2.90;;
60975;SDS011;46849;48.154;17.042;2022-08-14T13:31:59;4.20;;;2.75;;
60975;SDS011;46849;48.154;17.042;2022-08-14T13:34:47;4.97;;;3.17;;
60975;SDS011;46849;48.154;17.042;2022-08-14T13:37:32;4.70;;;3.17;;
60975;SDS011;46849;48.154;17.042;2022-08-14T13:40:18;4.50;;;3.15;;
60975;SDS011;46849;48.154;17.042;2022-08-14T13:43:04;5.00;;;2.97;;
60975;SDS011;46849;48.154;17.042;2022-08-14T13:45:51;5.18;;;2.92;;
60975;SDS011;46849;48.154;17.042;2022-08-14T13:48:39;4.78;;;3.10;;
60975;SDS011;46849;48.154;17.042;2022-08-14T13:51:24;5.20;;;3.00;;
60975;SDS011;46849;48.154;17.042;2022-08-14T13:54:15;4.85;;;3.28;;
60975;SDS011;46849;48.154;17.042;2022-08-14T13:57:02;4.72;;;3.22;;
60975;SDS011;46849;48.154;17.042;2022-08-14T13:59:49;4.82;;;2.80;;
60975;SDS011;46849;48.154;17.042;2022-08-14T14:02:36;4.38;;;3.00;;
60975;SDS011;46849;48.154;17.042;2022-08-14T14:05:21;4.28;;;2.97;;
60975;SDS011;46849;48.154;17.042;2022-08-14T14:08:07;4.45;;;3.00;;
60975;SDS011;46849;48.154;17.042;2022-08-14T14:10:55;3.83;;;2.92;;
60975;SDS011;46849;48.154;17.042;2022-08-14T14:13:40;5.18;;;3.03;;
60975;SDS011;46849;48.154;17.042;2022-08-14T14:16:25;4.03;;;3.05;;
60975;SDS011;46849;48.154;17.042;2022-08-14T14:19:10;3.95;;;3.20;;
60975;SDS011;46849;48.154;17.042;2022-08-14T14:21:55;3.72;;;2.88;;
60975;SDS011;46849;48.154;17.042;2022-08-14T14:24:45;3.97;;;2.83;;
60975;SDS011;46849;48.154;17.042;2022-08-14T14:27:31;3.90;;;2.90;;
60975;SDS011;46849;48.154;17.042;2022-08-14T14:30:17;5.78;;;2.78;;
60975;SDS011;46849;48.154;17.042;2022-08-14T14:33:02;3.78;;;3.00;;
60975;SDS011;46849;48.154;17.042;2022-08-14T14:35:49;3.80;;;3.05;;
60975;SDS011;46849;48.154;17.042;2022-08-14T14:38:34;5.68;;;2.72;;
60975;SDS011;46849;48.154;17.042;2022-08-14T14:41:27;4.13;;;2.90;;
60975;SDS011;46849;48.154;17.042;2022-08-14T14:44:13;4.50;;;3.00;;
60975;SDS011;46849;48.154;17.042;2022-08-14T14:47:00;3.17;;;2.35;;
60975;SDS011;46849;48.154;17.042;2022-08-14T14:49:45;4.57;;;3.10;;
60975;SDS011;46849;48.154;17.042;2022-08-14T14:52:33;3.70;;;2.78;;
60975;SDS011;46849;48.154;17.042;2022-08-14T14:55:18;5.45;;;3.25;;
60975;SDS011;46849;48.154;17.042;2022-08-14T14:58:04;4.72;;;2.80;;
60975;SDS011;46849;48.154;17.042;2022-08-14T15:00:52;4.93;;;3.22;;
60975;SDS011;46849;48.154;17.042;2022-08-14T15:03:38;3.63;;;2.92;;
60975;SDS011;46849;48.154;17.042;2022-08-14T15:06:24;4.15;;;3.25;;
60975;SDS011;46849;48.154;17.042;2022-08-14T15:09:09;3.75;;;2.78;;
60975;SDS011;46849;48.154;17.042;2022-08-14T15:11:54;4.78;;;2.80;;
60975;SDS011;46849;48.154;17.042;2022-08-14T15:14:39;4.78;;;2.75;;
60975;SDS011;46849;48.154;17.042;2022-08-14T15:17:24;3.25;;;2.45;;
60975;SDS011;46849;48.154;17.042;2022-08-14T15:20:13;4.53;;;3.15;;
60975;SDS011;46849;48.154;17.042;2022-08-14T15:25:44;3.65;;;2.72;;
60975;SDS011;46849;48.154;17.042;2022-08-14T15:28:30;4.32;;;3.10;;
60975;SDS011;46849;48.154;17.042;2022-08-14T15:31:21;4.00;;;2.88;;
60975;SDS011;46849;48.154;17.042;2022-08-14T15:34:06;4.78;;;3.38;;
60975;SDS011;46849;48.154;17.042;2022-08-14T15:37:02;5.60;;;2.92;;
60975;SDS011;46849;48.154;17.042;2022-08-14T15:40:00;6.25;;;3.35;;
60975;SDS011;46849;48.154;17.042;2022-08-14T15:42:45;6.28;;;3.15;;
60975;SDS011;46849;48.154;17.042;2022-08-14T15:45:31;4.82;;;3.20;;
60975;SDS011;46849;48.154;17.042;2022-08-14T15:48:18;6.15;;;3.00;;
60975;SDS011;46849;48.154;17.042;2022-08-14T15:51:05;3.83;;;2.85;;
60975;SDS011;46849;48.154;17.042;2022-08-14T15:53:50;5.78;;;3.22;;
60975;SDS011;46849;48.154;17.042;2022-08-14T15:56:34;4.63;;;3.00;;
60975;SDS011;46849;48.154;17.042;2022-08-14T15:59:20;7.32;;;3.08;;
60975;SDS011;46849;48.154;17.042;2022-08-14T16:02:05;3.92;;;2.65;;
60975;SDS011;46849;48.154;17.042;2022-08-14T16:04:51;4.00;;;3.00;;
60975;SDS011;46849;48.154;17.042;2022-08-14T16:07:37;6.28;;;3.30;;
60975;SDS011;46849;48.154;17.042;2022-08-14T16:10:22;4.97;;;3.25;;
60975;SDS011;46849;48.154;17.042;2022-08-14T16:13:07;6.18;;;3.50;;
60975;SDS011;46849;48.154;17.042;2022-08-14T16:15:52;3.95;;;3.10;;
60975;SDS011;46849;48.154;17.042;2022-08-14T16:18:39;4.30;;;3.10;;
60975;SDS011;46849;48.154;17.042;2022-08-14T16:21:25;5.53;;;3.25;;
60975;SDS011;46849;48.154;17.042;2022-08-14T16:24:14;5.85;;;2.78;;
60975;SDS011;46849;48.154;17.042;2022-08-14T16:27:01;5.13;;;2.92;;
60975;SDS011;46849;48.154;17.042;2022-08-14T16:29:51;4.97;;;3.53;;
60975;SDS011;46849;48.154;17.042;2022-08-14T16:32:39;5.45;;;2.97;;
60975;SDS011;46849;48.154;17.042;2022-08-14T16:35:26;3.75;;;2.90;;
60975;SDS011;46849;48.154;17.042;2022-08-14T16:38:15;6.70;;;3.45;;
60975;SDS011;46849;48.154;17.042;2022-08-14T16:41:03;4.13;;;2.90;;
60975;SDS011;46849;48.154;17.042;2022-08-14T16:44:15;6.70;;;3.22;;
60975;SDS011;46849;48.154;17.042;2022-08-14T16:47:03;4.38;;;3.15;;
60975;SDS011;46849;48.154;17.042;2022-08-14T16:50:00;4.53;;;3.05;;
60975;SDS011;46849;48.154;17.042;2022-08-14T16:52:47;4.47;;;3.28;;
60975;SDS011;46849;48.154;17.042;2022-08-14T16:55:34;5.95;;;3.33;;
60975;SDS011;46849;48.154;17.042;2022-08-14T16:58:19;4.90;;;3.33;;